CheckWX is a tool to help pilots better visualize weather data.  It is not intended as a substitute for an official pre-flight weather briefing.

07:47:25 UTC

LFPB TAF
Paris-Le Bourget Airport
Paris, France
TAF LFPB 060500Z 0606/0706 20007KT 7000 FEW005 BKN100 PROB40 TEMPO 0606/0609 BKN008 BECMG 0609/0612 20017KT 4000 -RA BKN008 PROB40 TEMPO 0610/0621 20017G32KT PROB30 TEMPO 0610/0613 2500 RA BECMG 0621/0624 6000 NSW NSC PROB30 TEMPO 0700/0706 4000 BR BKN012

Dec-6@
06:00 UTC

Dec-6 @ 06:00 UTC

Dec-6@
09:00 UTC

Dec-6 @ 09:00 UTC

TAF LFPB 060500Z 0606/0706 20007KT 7000 FEW005 BKN100
Wind
  • 200° at 7 KTS
Cloud Levels
  • Few at 500' AGL
  • Broken at 10,000' AGL

Dec-6@
06:00 UTC

Dec-6 @ 06:00 UTC

Dec-6@
09:00 UTC

Dec-6 @ 09:00 UTC

PROB40 TEMPO 0606/0609 BKN008

Temporary - 40% Likelihood

Temporary - 40% Likelihood during this time.

Cloud Levels
  • Broken at 800' AGL

Dec-6@
09:00 UTC

Dec-6 @ 09:00 UTC

Dec-6@
21:00 UTC

Dec-6 @ 21:00 UTC

BECMG 0609/0612 20017KT 4000 -RA BKN008

Becoming

Becoming Conditions expected by Fri, Dec 6, 2019 @ 12:00 UTC

Wind
  • 200° at 17 KTS
Conditions
Light Rain
Cloud Levels
  • Broken at 800' AGL

Dec-6@
10:00 UTC

Dec-6 @ 10:00 UTC

Dec-6@
13:00 UTC

Dec-6 @ 13:00 UTC

PROB30 TEMPO 0610/0613 2500 RA

Temporary - 30% Likelihood

Temporary - 30% Likelihood during this time.

Conditions
Rain

Dec-6@
10:00 UTC

Dec-6 @ 10:00 UTC

Dec-6@
21:00 UTC

Dec-6 @ 21:00 UTC

PROB40 TEMPO 0610/0621 20017G32KT

Temporary - 40% Likelihood

Temporary - 40% Likelihood during this time.

Wind
  • 200° at 17 KTS
  • {Gusting to 32 KTS

Dec-6@
21:00 UTC

Dec-6 @ 21:00 UTC

Dec-7@
06:00 UTC

Dec-7 @ 06:00 UTC

BECMG 0621/0624 6000 NSW NSC

Becoming

Becoming Conditions expected by Sat, Dec 7, 2019 @ 00:00 UTC

Wind
  • 200° at 17 KTS
Conditions
No significant weather
Cloud Levels
  • No significant clouds

Dec-7@
00:00 UTC

Dec-7 @ 00:00 UTC

Dec-7@
06:00 UTC

Dec-7 @ 06:00 UTC

PROB30 TEMPO 0700/0706 4000 BR BKN012

Temporary - 30% Likelihood

Temporary - 30% Likelihood during this time.

Conditions
Mist
Cloud Levels
  • Broken at 1,200' AGL